Terminal Aerodrome Forecast
Issued by NWS

Home | Current Version | Previous Version | Text Only | Print | Product List | Glossary On
Versions: 1 2 3 4 5 6 7 8 9 10 11 12
000
FTUS45 KRIW 022300
TAFBPI
TAF
KBPI 022330Z 0300/0324 26014KT P6SM SKC
     FM030200 33007KT P6SM SKC
     FM031900 26012G18KT P6SM FEW150=

USA.gov is the U.S. government's official web portal to all federal, state and local government web resources and services.